Time;durP1;ratioP1;P1;durP2;ratioP2;P2;SDS_P1;SDS_P2;PMS_P1;PMS_P2;Temp;Humidity;BMP_temperature;BMP_pressure;BME280_temperature;BME280_humidity;BME280_pressure;Samples;Min_cycle;Max_cycle;Signal;HPM_P1;HPM_P2
2022/07/24 00:00:17;;;;;;;19.50;11.70;;;;;;;22.49;58.76;92787.47;5052442;28;20043;-76
2022/07/24 00:02:42;;;;;;;18.83;11.35;;;;;;;22.42;58.25;92779.34;5053099;28;20029;-75
2022/07/24 00:05:09;;;;;;;17.05;11.40;;;;;;;22.35;58.35;92784.53;5033258;28;20044;-76
2022/07/24 00:07:36;;;;;;;15.73;11.15;;;;;;;22.30;58.29;92787.50;5022179;28;20036;-76
2022/07/24 00:10:06;;;;;;;15.27;10.65;;;;;;;22.30;56.98;92790.16;5052993;28;20071;-76
2022/07/24 00:12:31;;;;;;;17.25;11.07;;;;;;;22.25;57.19;92788.56;5053048;28;20459;-75
2022/07/24 00:14:57;;;;;;;17.67;10.73;;;;;;;22.24;56.68;92790.41;5050475;28;20064;-76
2022/07/24 00:17:23;;;;;;;15.32;10.55;;;;;;;22.26;56.60;92790.09;5034189;28;20112;-76
2022/07/24 00:19:48;;;;;;;19.17;10.25;;;;;;;22.22;57.01;92786.56;5035006;28;20040;-76
2022/07/24 00:22:14;;;;;;;15.90;9.98;;;;;;;22.19;57.17;92780.03;5052453;28;20061;-76
2022/07/24 00:24:40;;;;;;;14.68;10.27;;;;;;;22.12;57.81;92779.88;5052698;28;20033;-76
2022/07/24 00:27:06;;;;;;;17.27;10.10;;;;;;;22.05;58.35;92779.75;5033855;28;20423;-75
2022/07/24 00:29:31;;;;;;;17.27;10.63;;;;;;;21.98;58.83;92776.94;5033982;28;20051;-76
2022/07/24 00:31:57;;;;;;;19.33;10.35;;;;;;;21.94;58.66;92776.09;5051783;28;20037;-76
2022/07/24 00:34:23;;;;;;;17.67;10.38;;;;;;;21.87;58.83;92776.72;5048459;28;20094;-75
2022/07/24 00:36:48;;;;;;;17.73;10.07;;;;;;;21.85;58.43;92772.88;5030927;28;20092;-75
2022/07/24 00:39:14;;;;;;;14.07;10.00;;;;;;;21.83;58.15;92770.53;5044179;28;20055;-76
2022/07/24 00:41:40;;;;;;;18.45;10.15;;;;;;;21.94;56.57;92765.44;5007642;28;20037;-75
2022/07/24 00:44:10;;;;;;;16.67;10.15;;;;;;;22.00;56.23;92777.38;5015523;28;20025;-76
2022/07/24 00:46:38;;;;;;;19.92;11.38;;;;;;;22.06;55.42;92769.84;5034125;28;20033;-76
2022/07/24 00:49:06;;;;;;;18.25;9.55;;;;;;;22.09;55.20;92771.81;5039013;28;20033;-76
2022/07/24 00:51:33;;;;;;;16.90;9.98;;;;;;;22.14;55.08;92764.31;5033358;28;20029;-76
2022/07/24 00:53:59;;;;;;;16.73;10.15;;;;;;;22.15;55.22;92757.84;5051885;28;20175;-76
2022/07/24 00:56:25;;;;;;;15.18;9.13;;;;;;;22.19;54.81;92763.25;5050577;28;20430;-75
2022/07/24 00:58:50;;;;;;;15.35;9.95;;;;;;;22.15;54.68;92755.19;5051343;28;20124;-76
2022/07/24 01:01:17;;;;;;;14.82;9.77;;;;;;;22.22;54.62;92763.38;5050155;28;20613;-76
2022/07/24 01:03:43;;;;;;;13.80;9.30;;;;;;;22.22;54.55;92766.03;5051359;28;20028;-76
2022/07/24 01:06:09;;;;;;;13.38;9.65;;;;;;;22.21;54.70;92753.81;5044214;28;20041;-76
2022/07/24 01:08:36;;;;;;;14.85;9.43;;;;;;;22.21;54.82;92761.00;5042639;28;20041;-76
2022/07/24 01:11:03;;;;;;;15.73;9.80;;;;;;;22.18;54.67;92757.16;5051822;28;20112;-76
2022/07/24 01:13:29;;;;;;;13.77;9.38;;;;;;;22.17;54.73;92762.84;5049304;28;20556;-75
2022/07/24 01:15:56;;;;;;;15.07;9.68;;;;;;;22.14;54.83;92750.97;5033745;28;20041;-76
2022/07/24 01:18:22;;;;;;;13.43;9.05;;;;;;;22.13;54.70;92762.00;5050235;28;20037;-76
2022/07/24 01:20:48;;;;;;;19.95;9.48;;;;;;;22.13;54.52;92762.00;5033962;28;20498;-76
2022/07/24 01:23:14;;;;;;;15.32;10.10;;;;;;;22.11;54.57;92770.34;5047685;28;20028;-76
2022/07/24 01:25:40;;;;;;;13.68;9.90;;;;;;;22.11;54.54;92762.34;5019940;28;20490;-76
2022/07/24 01:28:06;;;;;;;16.95;9.32;;;;;;;22.13;53.99;92765.41;5042035;28;20035;-76
2022/07/24 01:30:31;;;;;;;13.18;8.90;;;;;;;22.16;53.45;92762.06;5029464;28;20052;-75
2022/07/24 01:32:58;;;;;;;14.50;9.40;;;;;;;22.20;53.20;92762.13;5048807;28;20089;-76
2022/07/24 01:35:24;;;;;;;14.05;9.13;;;;;;;22.21;53.15;92767.13;5046449;28;20095;-75
2022/07/24 01:37:51;;;;;;;16.58;8.80;;;;;;;22.22;53.09;92763.38;5046053;28;20427;-75
2022/07/24 01:40:16;;;;;;;13.57;8.88;;;;;;;22.21;53.50;92769.81;5041802;28;20022;-76
2022/07/24 01:42:42;;;;;;;16.70;10.23;;;;;;;22.26;54.66;92775.97;5028474;28;20391;-76
2022/07/24 01:45:09;;;;;;;19.77;11.10;;;;;;;22.19;57.97;92772.03;5031774;28;20040;-76
2022/07/24 01:47:34;;;;;;;16.60;11.80;;;;;;;22.09;58.09;92764.59;5021489;28;20045;-76
2022/07/24 01:50:00;;;;;;;16.02;10.05;;;;;;;22.01;57.83;92760.25;5031130;28;20033;-76
2022/07/24 01:52:26;;;;;;;17.00;9.57;;;;;;;21.97;56.50;92762.81;5041572;28;20103;-76
2022/07/24 01:54:52;;;;;;;15.57;9.20;;;;;;;21.94;55.69;92760.88;5014271;28;20085;-75
2022/07/24 01:57:18;;;;;;;13.57;9.43;;;;;;;21.95;55.37;92762.44;5046792;28;20032;-76
2022/07/24 01:59:43;;;;;;;15.75;8.98;;;;;;;21.95;55.03;92765.09;5030815;28;20034;-76
2022/07/24 02:02:09;;;;;;;15.07;9.43;;;;;;;21.93;54.76;92761.22;5030261;28;20032;-76
2022/07/24 02:04:34;;;;;;;13.10;9.30;;;;;;;21.94;54.66;92757.44;5050942;28;20446;-76
2022/07/24 02:07:00;;;;;;;14.07;8.93;;;;;;;21.91;54.51;92756.25;5012158;28;20041;-76
2022/07/24 02:09:26;;;;;;;16.13;9.68;;;;;;;21.92;54.67;92762.34;5042572;28;20037;-75
2022/07/24 02:11:52;;;;;;;13.05;9.00;;;;;;;21.94;53.97;92760.09;5047020;28;20066;-76
2022/07/24 02:14:18;;;;;;;13.98;9.10;;;;;;;21.94;53.95;92762.78;5022362;28;20079;-76
2022/07/24 02:16:44;;;;;;;12.57;8.63;;;;;;;21.95;54.24;92769.63;5022210;28;20068;-76
2022/07/24 02:19:09;;;;;;;14.52;9.45;;;;;;;21.93;54.05;92763.88;5019592;28;20053;-76
2022/07/24 02:21:35;;;;;;;13.50;9.38;;;;;;;21.96;53.87;92763.97;5049689;28;20041;-76
2022/07/24 02:24:00;;;;;;;14.48;9.10;;;;;;;21.97;53.97;92764.72;5049705;28;20021;-76
2022/07/24 02:26:27;;;;;;;15.43;9.05;;;;;;;21.95;53.99;92761.63;5049749;28;20044;-76
2022/07/24 02:28:53;;;;;;;16.88;8.88;;;;;;;21.95;53.95;92761.63;5032160;28;20036;-76
2022/07/24 02:31:19;;;;;;;15.60;8.90;;;;;;;22.05;53.39;92766.41;5032563;28;20486;-76
2022/07/24 02:33:44;;;;;;;13.30;9.90;;;;;;;22.05;55.10;92766.41;5049700;28;20044;-76
2022/07/24 02:36:10;;;;;;;16.08;10.45;;;;;;;21.95;56.57;92767.75;5050722;28;20486;-76
2022/07/24 02:38:36;;;;;;;15.68;10.88;;;;;;;21.93;57.29;92758.53;5032578;28;20486;-76
2022/07/24 02:41:02;;;;;;;14.70;9.80;;;;;;;21.82;57.93;92767.09;5048729;28;20090;-76
2022/07/24 02:43:27;;;;;;;15.50;9.57;;;;;;;21.75;57.40;92768.84;5031607;28;20120;-76
2022/07/24 02:45:53;;;;;;;13.80;9.23;;;;;;;21.69;55.79;92776.34;5032333;28;20108;-75
2022/07/24 02:48:19;;;;;;;13.57;9.07;;;;;;;21.67;55.64;92767.94;5048872;28;20143;-75
2022/07/24 02:50:45;;;;;;;16.15;9.30;;;;;;;21.65;55.40;92775.50;5032332;28;20079;-76
2022/07/24 02:53:10;;;;;;;17.30;9.63;;;;;;;21.63;55.47;92777.72;5049045;28;20167;-75
2022/07/24 02:55:36;;;;;;;12.13;9.07;;;;;;;21.67;54.86;92767.94;5031563;28;20120;-75
2022/07/24 02:58:01;;;;;;;13.90;8.88;;;;;;;21.68;54.42;92764.13;5022507;28;20063;-76
2022/07/24 03:00:27;;;;;;;13.00;8.93;;;;;;;21.72;54.32;92772.97;5031371;28;20474;-76
2022/07/24 03:02:53;;;;;;;13.88;9.05;;;;;;;21.73;54.37;92766.53;5015771;28;20041;-76
2022/07/24 03:05:18;;;;;;;12.95;8.93;;;;;;;21.83;52.98;92768.63;5049182;28;20045;-75
2022/07/24 03:07:44;;;;;;;17.52;8.93;;;;;;;21.86;53.05;92771.72;5050181;28;20028;-76
2022/07/24 03:10:11;;;;;;;16.40;9.80;;;;;;;21.87;53.78;92771.38;5030405;28;20461;-76
2022/07/24 03:12:37;;;;;;;15.68;9.13;;;;;;;21.83;54.19;92771.31;5031984;28;20045;-76
2022/07/24 03:15:03;;;;;;;15.23;9.35;;;;;;;21.74;55.13;92772.63;5030946;28;20036;-75
2022/07/24 03:17:28;;;;;;;16.38;9.48;;;;;;;21.70;55.34;92783.19;5028055;28;20036;-75
2022/07/24 03:19:54;;;;;;;13.32;8.77;;;;;;;21.62;55.71;92781.53;5048447;28;20037;-75
2022/07/24 03:22:20;;;;;;;13.63;9.40;;;;;;;21.55;56.09;92790.13;5014464;28;20041;-76
2022/07/24 03:24:45;;;;;;;13.73;9.05;;;;;;;21.72;55.45;92780.97;5017384;28;20036;-76
2022/07/24 03:27:11;;;;;;;13.88;9.32;;;;;;;21.63;55.80;92783.06;5014467;28;20036;-76
2022/07/24 03:29:37;;;;;;;16.48;9.30;;;;;;;21.52;56.62;92782.03;5028516;28;20039;-75
2022/07/24 03:32:02;;;;;;;14.27;8.90;;;;;;;21.42;56.94;92784.13;5030484;28;20045;-76
2022/07/24 03:34:28;;;;;;;14.18;9.07;;;;;;;21.34;57.21;92779.72;5010903;28;20589;-76
2022/07/24 03:36:53;;;;;;;14.40;9.45;;;;;;;21.27;57.66;92786.78;5045403;28;20082;-76
2022/07/24 03:39:19;;;;;;;13.63;8.95;;;;;;;21.18;58.61;92787.72;5038319;28;20041;-76
2022/07/24 03:41:45;;;;;;;12.38;8.98;;;;;;;21.13;58.95;92787.22;5033279;28;20037;-76
2022/07/24 03:44:10;;;;;;;12.95;9.35;;;;;;;21.08;59.49;92792.81;5021542;28;20558;-76
2022/07/24 03:46:36;;;;;;;16.45;9.00;;;;;;;21.02;59.73;92791.53;5031528;28;20037;-76
2022/07/24 03:49:02;;;;;;;15.57;9.90;;;;;;;20.96;59.78;92799.75;5049573;28;20033;-76
2022/07/24 03:51:27;;;;;;;17.30;9.77;;;;;;;20.90;60.42;92806.44;5049570;28;20096;-75
2022/07/24 03:53:54;;;;;;;17.73;9.73;;;;;;;20.87;61.04;92804.47;5047269;28;20043;-76
2022/07/24 03:56:19;;;;;;;18.77;10.00;;;;;;;20.83;61.69;92802.81;5049187;28;20036;-76
2022/07/24 03:58:45;;;;;;;15.27;9.63;;;;;;;20.76;61.68;92804.22;5049656;28;20403;-75
2022/07/24 04:01:10;;;;;;;14.68;9.50;;;;;;;20.73;61.69;92812.09;5050932;28;20028;-76
2022/07/24 04:03:36;;;;;;;13.10;9.00;;;;;;;20.70;61.32;92813.53;5052996;28;20037;-76
2022/07/24 04:06:04;;;;;;;13.43;9.55;;;;;;;20.68;60.99;92809.69;5052438;28;20039;-76
2022/07/24 04:08:29;;;;;;;14.40;9.65;;;;;;;20.68;61.43;92812.34;5035587;28;20376;-76
2022/07/24 04:10:57;;;;;;;14.43;9.80;;;;;;;20.65;61.83;92815.66;5030025;28;20036;-75
2022/07/24 04:13:27;;;;;;;15.23;9.57;;;;;;;20.61;61.81;92809.50;5035091;28;20053;-75
2022/07/24 04:15:54;;;;;;;15.95;9.48;;;;;;;20.58;62.01;92814.38;5044121;28;20061;-76
2022/07/24 04:18:20;;;;;;;16.52;9.77;;;;;;;20.57;62.47;92814.72;5033075;28;20030;-76
2022/07/24 04:20:46;;;;;;;16.13;9.60;;;;;;;20.54;62.62;92818.03;5052583;28;20086;-76
2022/07/24 04:23:11;;;;;;;14.68;9.77;;;;;;;20.54;63.06;92818.03;5034736;28;20154;-76
2022/07/24 04:25:37;;;;;;;18.95;10.02;;;;;;;20.53;63.45;92827.88;5024909;28;20486;-76
2022/07/24 04:28:03;;;;;;;16.50;9.88;;;;;;;20.51;63.90;92827.47;5032953;28;20090;-76
2022/07/24 04:30:28;;;;;;;16.42;10.75;;;;;;;20.53;64.02;92822.56;5052081;28;20037;-76
2022/07/24 04:32:54;;;;;;;16.30;10.20;;;;;;;20.55;64.35;92838.19;5051933;28;20509;-76
2022/07/24 04:35:20;;;;;;;14.82;10.38;;;;;;;20.55;64.85;92828.31;5017703;28;20033;-76
2022/07/24 04:37:45;;;;;;;16.92;10.43;;;;;;;20.57;65.05;92831.44;5052285;28;20029;-75
2022/07/24 04:40:12;;;;;;;14.32;10.65;;;;;;;20.61;65.15;92836.09;5034335;28;20449;-75
2022/07/24 04:42:38;;;;;;;15.07;10.40;;;;;;;20.63;64.96;92839.97;5030105;28;20159;-75
2022/07/24 04:45:04;;;;;;;16.42;10.20;;;;;;;20.66;65.13;92839.28;5050577;28;20633;-76
2022/07/24 04:47:30;;;;;;;15.38;10.18;;;;;;;20.70;64.75;92834.81;5051001;28;20067;-76
2022/07/24 04:49:56;;;;;;;15.20;10.55;;;;;;;20.76;65.08;92833.47;5052389;28;20037;-76
2022/07/24 04:52:21;;;;;;;15.32;10.75;;;;;;;20.83;64.68;92843.53;5027472;28;20554;-75
2022/07/24 04:54:47;;;;;;;18.33;10.70;;;;;;;20.90;64.55;92843.69;5033765;28;20438;-76
2022/07/24 04:57:12;;;;;;;18.10;9.95;;;;;;;21.02;65.26;92842.09;5048424;28;20032;-75
2022/07/24 04:59:38;;;;;;;14.35;10.57;;;;;;;21.08;65.81;92835.41;5033868;28;20043;-76
2022/07/24 05:02:04;;;;;;;15.48;10.82;;;;;;;21.12;66.15;92841.56;5026821;28;20806;-76
2022/07/24 05:04:30;;;;;;;17.05;10.93;;;;;;;21.19;66.29;92844.41;5033268;28;20040;-76
2022/07/24 05:06:55;;;;;;;14.35;10.07;;;;;;;21.26;66.71;92843.81;5050546;28;20771;-76
2022/07/24 05:09:21;;;;;;;16.52;11.73;;;;;;;21.33;67.02;92850.06;5045054;28;20029;-76
2022/07/24 05:11:46;;;;;;;16.38;11.40;;;;;;;21.35;68.41;92853.16;5049746;28;20396;-76
2022/07/24 05:14:12;;;;;;;20.65;11.77;;;;;;;21.40;68.24;92847.59;5031642;28;20044;-76
2022/07/24 05:16:37;;;;;;;20.98;12.52;;;;;;;21.47;68.15;92851.56;5038305;28;20045;-76
2022/07/24 05:19:03;;;;;;;18.73;11.73;;;;;;;21.55;67.79;92848.72;5045004;28;20064;-76
2022/07/24 05:21:29;;;;;;;22.52;13.13;;;;;;;21.62;67.37;92853.44;5046735;28;20029;-76
2022/07/24 05:23:55;;;;;;;22.45;12.95;;;;;;;21.70;67.51;92854.38;5042838;28;21452;-76
2022/07/24 05:26:21;;;;;;;21.40;12.30;;;;;;;21.77;67.49;92857.97;5040300;28;20452;-76
2022/07/24 05:28:46;;;;;;;19.58;13.27;;;;;;;21.87;68.16;92862.00;5025321;28;20040;-75
2022/07/24 05:31:12;;;;;;;22.52;13.63;;;;;;;21.94;69.28;92856.03;5036147;28;20033;-76
2022/07/24 05:33:37;;;;;;;21.58;13.60;;;;;;;22.00;69.44;92865.31;5022145;28;20115;-75
2022/07/24 05:36:03;;;;;;;24.60;13.50;;;;;;;22.09;70.20;92857.91;5043549;28;20170;-76
2022/07/24 05:38:29;;;;;;;20.45;14.00;;;;;;;22.11;70.79;92863.66;5008317;28;20047;-76
2022/07/24 05:40:55;;;;;;;22.80;14.05;;;;;;;22.20;70.43;92864.22;5039918;28;20037;-76
2022/07/24 05:43:20;;;;;;;18.50;14.00;;;;;;;22.25;70.47;92863.22;5041960;28;20499;-76
2022/07/24 05:45:46;;;;;;;21.55;14.50;;;;;;;22.34;70.26;92868.34;5037835;28;20053;-75
2022/07/24 05:48:12;;;;;;;22.10;14.30;;;;;;;22.42;70.12;92870.00;5048568;28;20037;-75
2022/07/24 05:50:38;;;;;;;21.60;13.65;;;;;;;22.49;68.72;92864.81;5024936;28;20040;-75
2022/07/24 05:53:03;;;;;;;19.45;13.82;;;;;;;22.55;67.60;92874.09;5035947;28;20060;-76
2022/07/24 05:55:29;;;;;;;23.02;14.27;;;;;;;22.63;67.67;92870.44;5044123;28;20056;-76
2022/07/24 05:57:55;;;;;;;21.92;13.65;;;;;;;22.68;64.25;92873.97;5043805;28;20521;-75
2022/07/24 06:00:21;;;;;;;21.15;13.50;;;;;;;22.64;64.19;92879.97;5042419;28;20052;-76
2022/07/24 06:02:47;;;;;;;21.35;14.18;;;;;;;22.61;64.88;92877.25;5043377;28;20044;-75
2022/07/24 06:05:16;;;;;;;19.88;13.85;;;;;;;22.61;61.98;92883.38;5042199;28;20387;-76
2022/07/24 06:07:42;;;;;;;26.05;14.50;;;;;;;22.66;62.61;92880.41;5043743;28;20041;-76
2022/07/24 06:10:09;;;;;;;21.83;13.13;;;;;;;22.84;58.83;92886.06;5043169;28;20698;-75
2022/07/24 06:12:35;;;;;;;21.85;14.00;;;;;;;22.90;60.08;92888.44;5032075;28;20033;-76
2022/07/24 06:15:00;;;;;;;22.92;15.00;;;;;;;23.05;61.80;92893.72;5045806;28;20029;-75
2022/07/24 06:17:26;;;;;;;20.20;14.45;;;;;;;23.34;62.75;92888.91;5008867;28;21127;-75
2022/07/24 06:19:51;;;;;;;26.42;15.93;;;;;;;23.72;62.40;92881.88;5006799;28;20372;-76
2022/07/24 06:22:17;;;;;;;22.55;14.75;;;;;;;24.29;60.75;92890.72;5034139;28;20130;-76
2022/07/24 06:24:43;;;;;;;22.50;14.63;;;;;;;24.52;57.57;92887.25;5029101;28;20029;-76
2022/07/24 06:27:08;;;;;;;23.35;13.65;;;;;;;24.58;55.71;92896.47;5042018;28;20461;-76
2022/07/24 06:29:34;;;;;;;22.48;13.48;;;;;;;25.18;54.59;92897.53;5035513;28;20033;-76
2022/07/24 06:31:59;;;;;;;21.88;14.80;;;;;;;25.64;53.19;92897.19;5013763;28;20034;-76
2022/07/24 06:34:25;;;;;;;24.33;14.63;;;;;;;26.13;48.75;92898.72;5018566;28;20426;-75
2022/07/24 06:36:51;;;;;;;21.40;13.65;;;;;;;26.60;50.20;92889.06;5012333;28;20513;-75
2022/07/24 06:39:17;;;;;;;22.55;14.75;;;;;;;26.60;52.67;92893.66;5037312;28;20529;-76
2022/07/24 06:41:43;;;;;;;26.60;16.33;;;;;;;26.47;52.48;92895.84;5031219;28;20171;-75
2022/07/24 06:44:23;;;;;;;27.33;15.70;;;;;;;26.43;53.42;92895.06;5048252;28;20052;-75
2022/07/24 06:46:49;;;;;;;23.60;15.80;;;;;;;26.43;54.18;92895.06;5036878;28;20033;-75
2022/07/24 06:49:14;;;;;;;31.58;16.33;;;;;;;26.41;55.55;92895.44;5024776;28;20039;-75
2022/07/24 06:51:40;;;;;;;29.75;16.73;;;;;;;26.61;53.22;92898.63;5044441;28;20503;-76
2022/07/24 06:54:06;;;;;;;28.55;16.38;;;;;;;26.81;53.45;92898.34;5038100;28;20121;-76
2022/07/24 06:56:31;;;;;;;26.42;16.10;;;;;;;26.96;52.38;92895.31;5012527;28;20048;-75
2022/07/24 06:58:59;;;;;;;26.02;15.48;;;;;;;27.05;49.12;92894.97;5043894;28;20033;-75
2022/07/24 07:01:25;;;;;;;25.48;16.35;;;;;;;27.04;50.84;92896.09;5040707;28;20044;-75
2022/07/24 07:03:54;;;;;;;24.80;15.77;;;;;;;27.31;49.61;92898.50;5012330;28;20487;-77
2022/07/24 07:06:21;;;;;;;26.35;16.25;;;;;;;27.60;48.93;92899.31;5049853;28;20060;-76
2022/07/24 07:08:46;;;;;;;28.85;16.55;;;;;;;27.73;47.77;92902.38;5048491;28;20063;-78
2022/07/24 07:11:12;;;;;;;30.80;19.00;;;;;;;27.50;54.31;92897.38;5045404;28;20069;-79
2022/07/24 07:13:37;;;;;;;35.63;18.88;;;;;;;27.07;55.57;92900.72;5041538;28;20061;-80
2022/07/24 07:16:03;;;;;;;27.00;18.73;;;;;;;26.99;56.09;92899.16;5043745;28;20551;-79
2022/07/24 07:18:29;;;;;;;28.55;18.77;;;;;;;26.80;56.43;92892.19;5029772;28;20889;-80
2022/07/24 07:20:55;;;;;;;28.90;17.80;;;;;;;26.42;56.34;92896.22;5046925;28;20064;-80
2022/07/24 07:23:23;;;;;;;27.38;17.33;;;;;;;26.44;55.07;92900.06;5026170;28;20034;-81
2022/07/24 07:25:49;;;;;;;30.92;18.95;;;;;;;26.14;56.99;92903.72;5020082;28;20442;-79
2022/07/24 07:28:15;;;;;;;26.55;17.88;;;;;;;26.23;53.70;92894.56;5027921;28;20127;-80
2022/07/24 07:30:41;;;;;;;34.38;19.25;;;;;;;25.84;57.10;92901.19;5042773;28;20120;-79
2022/07/24 07:33:06;;;;;;;32.20;18.85;;;;;;;25.74;57.92;92909.94;5023428;28;20049;-79
2022/07/24 07:35:32;;;;;;;30.25;19.50;;;;;;;25.78;58.71;92899.97;5030135;28;20068;-79
2022/07/24 07:37:58;;;;;;;29.42;18.10;;;;;;;25.51;56.83;92900.16;5044229;28;20124;-79
2022/07/24 07:40:24;;;;;;;30.55;19.45;;;;;;;25.51;59.22;92908.22;5026013;28;20041;-80
2022/07/24 07:42:51;;;;;;;32.65;20.30;;;;;;;25.34;59.45;92903.44;5048423;28;20044;-85
2022/07/24 07:45:17;;;;;;;29.38;17.30;;;;;;;25.65;56.27;92893.38;5053155;28;20495;-83
2022/07/24 07:47:43;;;;;;;30.63;17.88;;;;;;;26.11;55.62;92901.03;5053547;28;20040;-83
2022/07/24 07:50:10;;;;;;;28.15;17.58;;;;;;;26.58;53.61;92902.84;5051423;28;20044;-81
2022/07/24 07:52:35;;;;;;;27.10;17.17;;;;;;;26.78;54.78;92905.22;5037075;28;20045;-83
2022/07/24 07:55:01;;;;;;;27.80;16.92;;;;;;;27.04;51.36;92898.78;5037447;28;20073;-81
2022/07/24 07:57:27;;;;;;;28.02;16.48;;;;;;;27.00;50.04;92900.72;5017816;28;20090;-81
2022/07/24 07:59:52;;;;;;;26.33;16.65;;;;;;;26.93;51.91;92906.03;5035722;28;20037;-82
2022/07/24 08:02:18;;;;;;;28.45;16.27;;;;;;;26.89;49.19;92907.97;5014300;28;20048;-82
2022/07/24 08:04:43;;;;;;;27.45;15.13;;;;;;;26.60;44.11;92909.75;5036887;28;20036;-81
2022/07/24 08:07:09;;;;;;;24.92;14.52;;;;;;;26.66;44.33;92900.19;5055603;28;20049;-81
2022/07/24 08:09:34;;;;;;;24.42;14.88;;;;;;;26.87;43.71;92907.56;5054661;28;20033;-81
2022/07/24 08:12:00;;;;;;;26.80;14.07;;;;;;;27.02;44.31;92898.41;5032617;28;20149;-81
2022/07/24 08:14:26;;;;;;;28.27;15.07;;;;;;;27.05;47.12;92900.34;5003513;28;20045;-81
2022/07/24 08:16:51;;;;;;;30.35;16.40;;;;;;;27.03;48.66;92908.00;5054379;28;20025;-81
2022/07/24 08:19:17;;;;;;;23.55;14.75;;;;;;;27.06;45.12;92911.84;5055089;28;20043;-81
2022/07/24 08:21:43;;;;;;;27.20;15.80;;;;;;;27.23;45.47;92913.09;5036948;28;20033;-81
2022/07/24 08:24:08;;;;;;;25.33;15.68;;;;;;;27.10;45.79;92915.31;5037249;28;20034;-81
2022/07/24 08:26:34;;;;;;;24.52;15.32;;;;;;;26.86;48.39;92917.53;5050619;28;20041;-82
2022/07/24 08:28:59;;;;;;;24.42;15.13;;;;;;;26.90;49.29;92922.91;5054501;28;20490;-81
2022/07/24 08:31:26;;;;;;;26.98;14.95;;;;;;;27.07;47.20;92927.59;5035161;28;20453;-81
2022/07/24 08:33:51;;;;;;;28.33;16.42;;;;;;;27.07;49.70;92921.47;5053532;28;20036;-81
2022/07/24 08:36:17;;;;;;;30.58;16.05;;;;;;;27.11;48.63;92917.63;5035738;28;20487;-81
2022/07/24 08:38:43;;;;;;;30.67;17.73;;;;;;;27.14;50.63;92927.59;5054713;28;20029;-81
2022/07/24 08:41:08;;;;;;;27.98;16.55;;;;;;;27.16;51.10;92919.94;5036864;28;20041;-82
2022/07/24 08:43:34;;;;;;;29.58;17.52;;;;;;;27.09;49.86;92922.63;5053019;28;20021;-81
2022/07/24 08:46:02;;;;;;;27.80;16.60;;;;;;;27.07;46.95;92930.28;5023334;28;20036;-81
2022/07/24 08:48:28;;;;;;;26.92;17.77;;;;;;;27.11;49.31;92916.84;5052882;28;20029;-82
2022/07/24 08:50:55;;;;;;;27.95;17.45;;;;;;;26.98;49.73;92927.19;5036173;28;20498;-81
2022/07/24 08:53:22;;;;;;;34.17;18.13;;;;;;;27.15;51.43;92918.38;5049543;28;20102;-81
2022/07/24 08:55:48;;;;;;;29.40;17.33;;;;;;;27.42;49.42;92926.16;5070833;28;20036;-82
2022/07/24 08:58:14;;;;;;;28.40;17.02;;;;;;;27.64;48.06;92928.91;5073953;28;20040;-82
2022/07/24 09:00:41;;;;;;;26.52;18.10;;;;;;;27.72;48.25;92933.09;5072988;28;20123;-81
2022/07/24 09:03:06;;;;;;;26.05;16.80;;;;;;;27.82;47.76;92922.34;5074808;28;20450;-81
2022/07/24 09:05:34;;;;;;;28.77;16.63;;;;;;;27.70;47.77;92932.75;5072658;28;20081;-81
2022/07/24 09:08:10;;;;;;;29.05;18.27;;;;;;;27.64;47.72;92931.59;5072398;28;20033;-81
2022/07/24 09:10:37;;;;;;;26.50;17.33;;;;;;;27.72;49.90;92925.03;5074208;28;20041;-81
2022/07/24 09:13:14;;;;;;;31.17;19.08;;;;;;;27.71;49.02;92939.66;5073190;28;20542;-81
2022/07/24 09:15:47;;;;;;;29.48;18.08;;;;;;;27.43;48.77;92933.09;5071845;28;20041;-81
2022/07/24 09:18:31;;;;;;;30.55;18.45;;;;;;;27.58;49.87;92928.50;5073465;28;20119;-81
2022/07/24 09:20:58;;;;;;;28.92;17.60;;;;;;;27.59;49.63;92938.09;5073778;28;20039;-81
2022/07/24 09:23:23;;;;;;;29.40;18.77;;;;;;;27.66;50.56;92940.03;5073929;28;20455;-82
2022/07/24 09:25:54;;;;;;;34.50;20.02;;;;;;;27.52;50.38;92933.50;5071371;28;20071;-81
2022/07/24 09:28:20;;;;;;;30.55;18.83;;;;;;;27.65;50.46;92933.09;5071774;28;20040;-81
2022/07/24 09:30:48;;;;;;;35.25;19.95;;;;;;;27.61;51.05;92939.25;5073481;28;20040;-81
2022/07/24 09:33:15;;;;;;;35.90;20.58;;;;;;;27.60;52.38;92935.00;5073631;28;20040;-81
2022/07/24 09:35:42;;;;;;;33.03;20.05;;;;;;;27.69;51.55;92945.41;5075891;28;20033;-81
2022/07/24 09:38:22;;;;;;;31.23;21.23;;;;;;;27.90;53.46;92939.31;5072628;28;20036;-81
2022/07/24 09:40:55;;;;;;;30.30;20.23;;;;;;;28.02;52.13;92940.84;5075898;28;20482;-81
2022/07/24 09:43:28;;;;;;;32.05;20.40;;;;;;;28.16;51.39;92940.06;5074765;28;20024;-81
2022/07/24 09:46:02;;;;;;;36.20;20.00;;;;;;;28.09;50.88;92940.06;5075110;28;20706;-81
2022/07/24 09:48:39;;;;;;;35.08;22.30;;;;;;;27.87;51.86;92942.00;5066302;28;20029;-85
2022/07/24 09:51:17;;;;;;;44.45;22.70;;;;;;;27.79;51.84;92938.50;5060718;28;20234;-81
2022/07/24 09:53:46;;;;;;;41.95;23.50;;;;;;;27.95;51.33;92938.16;5068713;28;20343;-82
2022/07/24 09:56:14;;;;;;;41.88;22.50;;;;;;;27.87;52.42;92940.06;5071688;28;20041;-82
2022/07/24 09:58:47;;;;;;;44.97;23.98;;;;;;;27.85;51.63;92931.59;5071365;28;20047;-82
2022/07/24 10:01:18;;;;;;;36.78;21.02;;;;;;;28.15;52.75;92931.22;5067298;28;20056;-85
2022/07/24 10:03:46;;;;;;;39.08;23.52;;;;;;;27.94;53.05;92937.38;5077199;28;20043;-82
2022/07/24 10:06:13;;;;;;;38.97;22.92;;;;;;;27.87;53.63;92937.38;5079773;28;20111;-82
2022/07/24 10:08:42;;;;;;;39.92;24.05;;;;;;;28.00;53.05;92933.16;5075736;28;20116;-82
2022/07/24 10:11:09;;;;;;;41.45;24.08;;;;;;;27.97;53.09;92928.56;5077875;28;20093;-82
2022/07/24 10:13:35;;;;;;;38.72;21.77;;;;;;;28.20;53.70;92932.75;5079386;28;20032;-84
2022/07/24 10:16:14;;;;;;;44.60;24.23;;;;;;;28.05;54.93;92931.22;5067110;28;20166;-83
2022/07/24 10:18:48;;;;;;;41.25;23.23;;;;;;;28.12;54.50;92934.69;5073121;28;20173;-83
2022/07/24 10:21:19;;;;;;;34.80;19.98;;;;;;;28.09;53.77;92923.94;5068247;28;20125;-83
2022/07/24 10:23:56;;;;;;;41.03;21.50;;;;;;;27.91;54.47;92935.47;5066751;28;20123;-80
2022/07/24 10:26:44;;;;;;;49.67;26.95;;;;;;;27.83;55.57;92936.56;5070552;28;20079;-82
2022/07/24 10:29:13;;;;;;;43.33;26.33;;;;;;;27.73;55.71;92934.66;5070408;28;20054;-80
2022/07/24 10:31:42;;;;;;;43.25;24.42;;;;;;;27.50;55.29;92941.16;5075126;28;20557;-81
2022/07/24 10:34:13;;;;;;;41.50;25.17;;;;;;;27.67;54.77;92936.94;5072402;28;20044;-80
2022/07/24 10:36:47;;;;;;;44.25;26.75;;;;;;;27.87;55.38;92929.31;5064095;28;20421;-80
2022/07/24 10:39:28;;;;;;;43.38;25.67;;;;;;;27.99;55.07;92936.25;5070333;28;20025;-80
2022/07/24 10:42:05;;;;;;;48.92;27.17;;;;;;;28.21;56.79;92928.91;5056199;28;20083;-80
2022/07/24 10:44:32;;;;;;;42.45;25.33;;;;;;;28.31;55.95;92921.97;5064308;28;20486;-80
2022/07/24 10:47:08;;;;;;;54.75;26.88;;;;;;;28.60;55.55;92931.56;5084443;28;20037;-79
2022/07/24 10:49:57;;;;;;;44.90;26.80;;;;;;;28.16;55.79;92924.69;5071365;28;20094;-79
2022/07/24 10:52:23;;;;;;;48.10;27.13;;;;;;;27.95;57.11;92920.09;5050761;28;20781;-80
2022/07/24 10:55:26;;;;;;;47.65;24.88;;;;;;;28.28;53.57;92917.34;5044275;28;20053;-83
2022/07/24 10:58:01;;;;;;;44.72;27.17;;;;;;;28.57;55.70;92915.41;5025222;28;20033;-81
2022/07/24 11:00:34;;;;;;;53.05;28.02;;;;;;;27.98;56.49;92908.56;5032559;28;20123;-80
2022/07/24 11:03:05;;;;;;;50.50;29.00;;;;;;;27.98;56.83;92907.78;5049546;28;20048;-80
2022/07/24 11:05:35;;;;;;;47.67;28.13;;;;;;;28.18;56.27;92905.47;5047571;28;20359;-79
2022/07/24 11:08:16;;;;;;;48.17;29.08;;;;;;;28.22;55.78;92903.53;5020037;28;20689;-79
2022/07/24 11:10:45;;;;;;;52.47;30.63;;;;;;;27.93;56.56;92905.50;5026645;28;20029;-79
2022/07/24 11:13:33;;;;;;;55.90;30.77;;;;;;;27.67;57.47;92901.22;5038804;28;20036;-79
2022/07/24 11:16:11;;;;;;;65.15;30.45;;;;;;;28.06;57.99;92893.19;5054180;28;20095;-79
2022/07/24 11:18:39;;;;;;;59.30;30.83;;;;;;;27.92;58.12;92899.34;5038163;28;20517;-80